• Join FlightAware (Why Join?)
  • Login
  • US Flag 
11:32PM EDT


 

Airport Tracker/Info


-or-


 

Live Flight TrackerFlight Track Log ✈ UCA597 ✈ 29-Oct-2013 ✈ KIAD - KBGM

Flight Track Log - Related Links

Times and Time Zones

All times are in EDT time to prevent confusion due to time zone crossing. See the UCA597 flight status page for this flight to view local times or setup timezone preferences in your user account.

Time Position Orientation Groundspeed Altitude Reporting Facility
EDT Latitude Longitude Course Direction KTS MPH feet Rate Location/Type
05:38PM 38.9667 -77.4333 339° North 122 140 1,500  Level Potomac TRACON
05:39PM 39.0000 -77.4500 339° North 165 190 2,800 1,560 Climbing Potomac TRACON
05:40PM 39.0500 -77.4667 345° North 169 194 4,700 1,440 Climbing Potomac TRACON
05:42PM 39.1358 -77.4969 345° North 177 204 7,400 1,320 Climbing Washington Center
05:43PM 39.1836 -77.5061 352° North 172 198 8,700 1,200 Climbing Washington Center
05:44PM 39.2339 -77.4967 North 172 198 9,800 1,200 Climbing Washington Center
05:46PM 39.3383 -77.4889 North 193 222 12,500 1,380 Climbing Washington Center
05:47PM 39.3925 -77.4822 North 193 222 13,900 1,260 Climbing Washington Center
05:49PM 39.4872 -77.4750 North 199 229 16,000 1,080 Climbing New York Center
05:50PM 39.5481 -77.4675 North 199 229 17,000 480 Climbing New York Center
05:51PM 39.6175 -77.4578 North 214 246 17,000  Level New York Center
05:52PM 39.6822 -77.4533 North 246 283 17,000  Level New York Center
05:53PM 39.7644 -77.4394 North 261 300 17,000  Level New York Center
05:54PM 39.8311 -77.4025 23° Northeast 274 315 17,000  Level New York Center
05:55PM 39.9106 -77.3611 22° Northeast 279 321 17,000  Level New York Center
05:56PM 39.9769 -77.3294 20° North 279 321 17,000  Level New York Center
05:57PM 40.0586 -77.2856 22° Northeast 279 321 17,000  Level New York Center
05:58PM 40.1253 -77.2511 22° Northeast 279 321 17,000  Level New York Center
05:59PM 40.2069 -77.2072 22° Northeast 279 321 17,000  Level New York Center
06:00PM 40.2711 -77.1750 21° North 279 321 17,000  Level New York Center
06:01PM 40.3508 -77.1306 23° Northeast 279 321 17,000  Level New York Center
06:02PM 40.4172 -77.0958 22° Northeast 279 321 17,000  Level New York Center
06:03PM 40.4967 -77.0511 23° Northeast 279 321 17,000  Level New York Center
06:04PM 40.5650 -77.0192 20° North 279 321 17,000  Level New York Center
06:05PM 40.6422 -76.9769 23° Northeast 274 315 17,000  Level New York Center
06:06PM 40.7067 -76.9417 23° Northeast 274 315 17,000  Level New York Center
06:07PM 40.7861 -76.8994 22° Northeast 274 315 17,000  Level New York Center
06:08PM 40.8503 -76.8642 23° Northeast 280 322 17,000  Level New York Center
06:09PM 40.9297 -76.8217 22° Northeast 280 322 17,000 -360 Level New York Center
06:10PM 40.9939 -76.7861 23° Northeast 275 316 16,300 -840 Descending New York Center
06:11PM 41.0711 -76.7436 23° Northeast 281 323 15,400 -900 Descending New York Center
06:12PM 41.1439 -76.7031 23° Northeast 281 323 14,500 -1,020 Descending New York Center
06:13PM 41.2256 -76.6550 24° Northeast 281 323 13,400 -780 Descending New York Center
06:14PM 41.3003 -76.6175 21° North 281 323 13,000 -240 Descending New York Center
06:15PM 41.3689 -76.5792 23° Northeast 271 312 13,000  Level New York Center
06:16PM 41.4272 -76.5400 27° Northeast 266 306 13,000  Level New York Center
06:17PM 41.4919 -76.4928 29° Northeast 266 306 13,000  Level New York Center
06:18PM 41.5608 -76.4461 27° Northeast 261 300 13,000 -600 Level New York Center
06:19PM 41.6278 -76.3961 29° Northeast 266 306 11,900 -1,200 Descending New York Center
06:20PM 41.6989 -76.3467 27° Northeast 278 320 10,700 -1,200 Descending New York Center
06:21PM 41.7611 -76.3044 27° Northeast 273 314 9,600 -1,260 Descending New York Center
06:22PM 41.8367 -76.2467 30° Northeast 273 314 8,200 -1,260 Descending New York Center
06:23PM 41.8939 -76.1819 40° Northeast 273 314 7,100 -1,200 Descending New York Center
06:24PM 41.9447 -76.1136 45° Northeast 259 298 5,900 -960 Descending New York Center
06:25PM 41.9953 -76.0561 40° Northeast 259 298 5,200 -600 Descending New York Center
06:26PM 42.0567 -75.9856 40° Northeast 259 298 4,800 -420 Descending New York Center
06:27PM 42.1089 -75.9311 38° Northeast 252 290 4,400 -780 Descending New York Center
06:28PM 42.1486 -75.9314 360° North 176 203 3,300 -1,200 Descending New York Center
06:29PM 42.1828 -75.9592 329° Northwest 144 166 2,100 -600 Descending New York Center
06:30PM 42.2158 -75.9619 356° North 144 166 2,100 3,420 Level New York Center
06:31PM 42.2531 -75.9703 351° North 144 166 9,000 6,900 Climbing New York Center
06:33PM 42.2084 -75.9796 270° West  Level Estimated
06:40PM 42.2084 -75.9796 270° West  Level Estimated